Vinga, Sweden

12:50 AM CEST on May 06, 2015 (GMT +0200)
Bohus-Bjrk | | Change Station
CLOSE
Current Station
Personal Weather Station
Location: Bohus-Bjrk, Bohus-Bjrk
Elevation: 60 ft
Nearby Weather Stations

Elev 60 ft 57.73 °N, 11.68 °E | Updated 1 second ago

Rain
Rain
52.3 °F
Feels Like 52.3 °F
N
17.1
Wind Variable Wind from WSW
Gusts 25.2 mph

Today
High -- | Low -- °F
--% Chance of Precip.
Yesterday
High -- | Low -- °F
Precip. -- in
5:11 AM 9:09 PM
Waning Gibbous, 97% visible
Pressure 29.50 in
Visibility 3.1 miles
Clouds Mostly Cloudy 600 ft
Overcast 1500 ft
Dew Point 51 °F
Humidity 96%
Rainfall 0.04 in
Snow Depth Not available.
UV 0 out of 12
Pollen Not available.
Air Quality Not available.
Flu Activity Not available.
METAR ESGP 052220Z 21010KT 5000 RA BKN006 OVC015 12/12 Q0999

More Conditions Fewer Conditions

Pressure 29.50 in
Visibility 3.1 miles
Clouds Mostly Cloudy 600 ft
Overcast 1500 ft
Dew Point 51 °F
Humidity 96%
Rainfall 0.04 in
Snow Depth Not available.
UV 0 out of 12
Pollen Not available.
Air Quality Not available.
Flu Activity Not available.
METAR ESGP 052220Z 21010KT 5000 RA BKN006 OVC015 12/12 Q0999

More Conditions Fewer Conditions

10-Day Weather Forecast

Almanac

Astronomy

May. 06, 2015 Rise Set
Actual Time
Civil Twilight
Nautical Twilight
Astronomical Twilight
Moon
Length of Visible Light
Length of Day
Tomorrow will be .
, % of the Moon is Illuminated

Today's Extremes

Country Highs Country Lows

Community

WunderPhotos

Upload Photos

1,819,000 photos uploaded!

WunderBlogs® & News

Nearby

Air Quality

  Air Quality AQ Index Pollutant
Not available.

Snow Depth

Station Depth Elevation

Earthquake Activity

City Distance Mag. Time & Date
Minimum magnitude displayed is 2.5.

Coastal Water Temperatures

Place Temperature

Stations

Nearby Weather Stations

Station Location Temp. Windchill Dew Point Humidity Wind Precip. Elev Updated Type